Time;durP1;ratioP1;P1;durP2;ratioP2;P2;SDS_P1;SDS_P2;PMS_P1;PMS_P2;Temp;Humidity;BMP_temperature;BMP_pressure;BME280_temperature;BME280_humidity;BME280_pressure;Samples;Min_cycle;Max_cycle;Signal;HPM_P1;HPM_P2
2022/08/08 00:00:05;;;;;;;2.63;0.90;;;20.10;49.20;;;;;;4988238;28;20579;-78
2022/08/08 00:03:07;;;;;;;1.80;1.00;;;20.10;49.30;;;;;;5007532;28;20601;-79
2022/08/08 00:05:42;;;;;;;1.83;0.80;;;20.10;49.70;;;;;;5010652;28;21141;-78
2022/08/08 00:08:11;;;;;;;2.00;0.80;;;20.10;49.80;;;;;;5013661;28;20628;-78
2022/08/08 00:11:06;;;;;;;1.97;0.80;;;20.00;49.90;;;;;;5012541;28;20644;-78
2022/08/08 00:13:40;;;;;;;1.60;1.07;;;20.00;50.30;;;;;;5013116;28;21275;-78
2022/08/08 00:16:32;;;;;;;1.77;1.00;;;19.90;50.10;;;;;;5013899;28;20656;-78
2022/08/08 00:19:23;;;;;;;1.47;0.80;;;19.90;50.60;;;;;;5010963;28;20597;-78
2022/08/08 00:22:01;;;;;;;2.00;0.80;;;19.90;50.60;;;;;;4996172;28;20592;-79
2022/08/08 00:24:35;;;;;;;1.70;0.90;;;19.80;50.50;;;;;;5011910;28;20609;-79
2022/08/08 00:27:06;;;;;;;2.37;0.80;;;19.80;50.50;;;;;;5011598;28;20659;-78
2022/08/08 00:29:41;;;;;;;1.83;0.97;;;19.80;50.80;;;;;;5012672;28;20635;-79
2022/08/08 00:32:18;;;;;;;1.63;0.90;;;19.70;50.90;;;;;;5013077;28;21041;-80
2022/08/08 00:37:45;;;;;;;1.60;0.90;;;19.70;50.90;;;;;;5018111;28;20675;-78
2022/08/08 00:40:38;;;;;;;1.67;1.00;;;19.60;51.40;;;;;;5015114;28;20597;-79
2022/08/08 00:43:23;;;;;;;1.97;0.90;;;19.60;51.60;;;;;;4995046;28;21012;-78
2022/08/08 00:46:20;;;;;;;1.70;0.97;;;19.60;51.20;;;;;;5012760;28;20565;-78
2022/08/08 00:48:52;;;;;;;2.63;1.00;;;19.60;52.00;;;;;;4994635;28;20944;-78
2022/08/08 00:51:36;;;;;;;2.00;1.00;;;19.60;51.50;;;;;;4994942;28;20585;-78
2022/08/08 00:54:01;;;;;;;2.00;1.00;;;19.50;52.10;;;;;;5011234;28;20569;-79
2022/08/08 00:57:01;;;;;;;1.90;1.10;;;19.50;51.80;;;;;;5011070;28;20603;-79
2022/08/08 00:59:43;;;;;;;1.63;1.07;;;19.40;52.40;;;;;;4994603;28;20175;-79
2022/08/08 01:02:30;;;;;;;1.70;0.80;;;19.40;51.90;;;;;;5011165;28;20668;-79
2022/08/08 01:05:15;;;;;;;2.13;1.00;;;19.40;52.70;;;;;;5011119;28;20660;-79
2022/08/08 01:07:56;;;;;;;2.00;1.00;;;19.30;52.70;;;;;;5011925;28;20629;-79
2022/08/08 01:10:24;;;;;;;1.90;1.10;;;19.30;52.60;;;;;;5010925;28;20589;-79
2022/08/08 01:13:16;;;;;;;2.20;1.20;;;19.30;52.60;;;;;;5012926;28;20577;-79
2022/08/08 01:16:04;;;;;;;1.97;1.10;;;19.30;53.30;;;;;;4994342;28;20986;-79
2022/08/08 01:19:04;;;;;;;3.80;1.17;;;19.30;53.40;;;;;;5011834;28;20672;-79
2022/08/08 01:21:56;;;;;;;1.63;0.83;;;19.20;53.60;;;;;;5012031;28;20601;-79
2022/08/08 01:25:11;;;;;;;1.80;0.97;;;19.20;53.80;;;;;;4994404;28;20592;-79
2022/08/08 01:28:22;;;;;;;1.90;1.00;;;19.20;54.00;;;;;;5010245;28;20623;-79
2022/08/08 01:31:00;;;;;;;1.83;1.23;;;19.20;54.10;;;;;;5008528;28;20585;-79
2022/08/08 01:33:59;;;;;;;3.20;1.10;;;19.10;54.10;;;;;;5010668;28;20703;-79
2022/08/08 01:36:43;;;;;;;5.23;1.20;;;19.10;54.40;;;;;;5010415;28;20617;-79
2022/08/08 01:39:15;;;;;;;2.20;1.23;;;19.10;54.50;;;;;;5010373;28;20580;-79
2022/08/08 01:41:47;;;;;;;1.90;1.20;;;19.10;54.90;;;;;;4994406;28;20672;-79
2022/08/08 01:44:25;;;;;;;3.00;1.23;;;19.10;55.10;;;;;;5015217;28;20569;-79
2022/08/08 01:47:31;;;;;;;2.40;1.40;;;19.10;55.70;;;;;;5016837;28;20632;-79
2022/08/08 01:50:11;;;;;;;1.60;0.90;;;19.00;55.70;;;;;;5002147;28;20848;-79
2022/08/08 01:53:02;;;;;;;1.80;1.07;;;19.00;55.60;;;;;;5000726;28;20573;-79
2022/08/08 01:55:56;;;;;;;2.90;1.50;;;19.00;56.10;;;;;;5000502;28;20574;-79
2022/08/08 01:59:06;;;;;;;1.90;1.20;;;18.90;56.30;;;;;;4983981;28;20581;-79
2022/08/08 02:02:02;;;;;;;2.83;1.20;;;18.90;56.50;;;;;;5001305;28;21135;-78
2022/08/08 02:04:56;;;;;;;3.20;1.20;;;18.90;56.60;;;;;;5000429;28;20573;-79
2022/08/08 02:07:32;;;;;;;1.60;1.00;;;18.90;56.90;;;;;;5000086;28;20676;-79
2022/08/08 02:10:36;;;;;;;1.90;1.03;;;18.80;56.90;;;;;;5023775;28;20581;-78
2022/08/08 02:13:21;;;;;;;2.00;1.10;;;18.80;57.70;;;;;;5000553;28;20569;-78
2022/08/08 02:19:52;;;;;;;2.80;1.50;;;18.70;58.10;;;;;;5017970;28;20931;-78
2022/08/08 02:22:53;;;;;;;1.70;1.17;;;18.70;57.80;;;;;;5016757;28;20569;-79
2022/08/08 02:25:48;;;;;;;2.03;1.10;;;18.60;58.50;;;;;;5000430;28;20945;-78
2022/08/08 02:28:22;;;;;;;2.03;0.90;;;18.60;58.60;;;;;;5000448;28;20635;-79
2022/08/08 02:31:05;;;;;;;3.23;1.03;;;18.60;58.90;;;;;;5016661;28;20573;-79
2022/08/08 02:34:04;;;;;;;2.03;1.10;;;18.60;59.70;;;;;;5000932;28;20573;-80
2022/08/08 02:36:42;;;;;;;3.03;1.20;;;18.60;59.90;;;;;;4999783;28;20952;-79
2022/08/08 02:39:32;;;;;;;2.00;1.57;;;18.50;60.20;;;;;;5016670;28;20580;-79
2022/08/08 02:42:05;;;;;;;2.07;1.00;;;18.50;60.90;;;;;;5016582;28;20562;-78
2022/08/08 02:44:47;;;;;;;1.77;1.10;;;18.50;60.90;;;;;;5109887;22;20690;-83
2022/08/08 02:47:51;;;;;;;3.37;1.50;;;18.50;61.20;;;;;;5004948;28;20629;-84
2022/08/08 02:50:55;;;;;;;2.10;1.30;;;18.40;62.40;;;;;;4987472;28;20618;-84
2022/08/08 02:53:35;;;;;;;2.20;1.20;;;18.40;62.70;;;;;;4988325;28;20625;-84
2022/08/08 02:56:27;;;;;;;1.70;1.20;;;18.40;63.50;;;;;;4975653;28;20605;-83
2022/08/08 02:59:31;;;;;;;2.07;1.40;;;18.30;63.90;;;;;;4972056;28;20575;-85
2022/08/08 03:02:12;;;;;;;2.03;1.23;;;18.30;64.40;;;;;;4967590;28;20610;-85
2022/08/08 03:04:41;;;;;;;2.90;1.40;;;18.30;64.20;;;;;;4964254;28;20653;-85
2022/08/08 03:07:40;;;;;;;2.40;1.33;;;18.30;65.00;;;;;;4964367;28;20634;-85
2022/08/08 03:10:44;;;;;;;1.90;1.27;;;18.20;66.50;;;;;;4963826;28;21165;-86
2022/08/08 03:13:47;;;;;;;2.30;1.30;;;18.20;67.20;;;;;;4964599;28;20616;-85
2022/08/08 03:16:39;;;;;;;2.20;1.33;;;18.20;67.80;;;;;;4971621;28;20647;-85
2022/08/08 03:19:28;;;;;;;3.20;1.40;;;18.10;68.30;;;;;;4942780;28;20963;-85
2022/08/08 03:21:55;;;;;;;2.40;1.33;;;18.10;68.90;;;;;;4937063;28;20587;-85
2022/08/08 03:24:21;;;;;;;2.17;1.83;;;18.10;68.40;;;;;;4965151;28;20619;-85
2022/08/08 03:26:54;;;;;;;1.77;1.50;;;18.10;69.10;;;;;;4986504;28;20618;-85
2022/08/08 03:29:28;;;;;;;2.03;1.30;;;18.10;70.20;;;;;;4953714;28;20257;-85
2022/08/08 03:34:39;;;;;;;2.13;1.43;;;18.00;71.10;;;;;;4965209;28;20615;-84
2022/08/08 03:37:09;;;;;;;2.40;1.60;;;18.00;71.70;;;;;;4964035;28;20590;-85
2022/08/08 03:39:35;;;;;;;2.33;1.50;;;18.00;72.80;;;;;;4962620;28;20583;-86
2022/08/08 03:42:01;;;;;;;3.90;2.80;;;18.00;72.90;;;;;;4962601;28;20582;-85
2022/08/08 03:44:32;;;;;;;2.53;1.57;;;18.00;73.50;;;;;;4947760;28;20664;-85
2022/08/08 03:47:01;;;;;;;2.70;1.60;;;17.90;74.20;;;;;;4963984;28;20627;-84
2022/08/08 03:49:27;;;;;;;3.87;1.60;;;17.90;74.80;;;;;;4951220;28;20578;-85
2022/08/08 03:51:55;;;;;;;3.20;1.80;;;17.90;75.50;;;;;;4965826;28;20559;-84
2022/08/08 03:54:26;;;;;;;2.23;1.53;;;17.90;76.20;;;;;;4966783;28;20603;-84
2022/08/08 03:56:53;;;;;;;4.07;2.10;;;17.90;76.80;;;;;;4965689;28;20960;-84
2022/08/08 03:59:19;;;;;;;3.10;2.13;;;17.90;77.40;;;;;;4966020;28;20586;-84
2022/08/08 04:01:45;;;;;;;2.97;2.00;;;17.80;78.00;;;;;;4963517;28;20681;-84
2022/08/08 04:04:12;;;;;;;3.40;1.67;;;17.80;78.70;;;;;;4966721;28;20615;-85
2022/08/08 04:06:55;;;;;;;2.30;1.73;;;17.80;79.30;;;;;;4951107;28;21166;-84
2022/08/08 04:09:24;;;;;;;2.93;2.00;;;17.80;80.60;;;;;;4963380;28;20630;-84
2022/08/08 04:11:50;;;;;;;3.87;1.93;;;17.80;80.40;;;;;;4946788;28;20579;-84
2022/08/08 04:14:15;;;;;;;5.20;1.80;;;17.70;80.90;;;;;;4980476;28;20598;-84
2022/08/08 04:16:44;;;;;;;2.90;1.97;;;17.70;82.40;;;;;;4963506;28;20183;-85
2022/08/08 04:19:11;;;;;;;2.83;1.90;;;17.70;82.20;;;;;;4963755;28;20585;-84
2022/08/08 04:21:37;;;;;;;3.00;2.20;;;17.70;82.60;;;;;;4962581;28;20575;-84
2022/08/08 04:24:03;;;;;;;5.40;2.30;;;17.70;83.40;;;;;;4963729;28;20677;-84
2022/08/08 04:26:29;;;;;;;4.43;1.90;;;17.70;84.00;;;;;;4961552;28;20199;-85
2022/08/08 04:28:55;;;;;;;4.53;2.10;;;17.70;84.40;;;;;;4962324;28;20555;-84
2022/08/08 04:31:21;;;;;;;2.50;1.73;;;17.70;84.90;;;;;;4980752;28;20727;-84
2022/08/08 04:33:47;;;;;;;2.93;2.00;;;17.60;85.40;;;;;;4962432;28;20694;-84
2022/08/08 04:36:13;;;;;;;3.30;2.40;;;17.70;86.00;;;;;;4966447;28;20570;-84
2022/08/08 04:38:39;;;;;;;2.90;1.53;;;17.60;86.00;;;;;;4955571;28;20586;-84
2022/08/08 04:41:05;;;;;;;5.10;2.70;;;17.60;86.10;;;;;;4970674;28;20190;-83
2022/08/08 04:43:31;;;;;;;4.83;2.03;;;17.60;86.70;;;;;;4985046;28;20630;-82
2022/08/08 04:45:58;;;;;;;2.50;1.83;;;17.60;87.10;;;;;;4989618;28;20621;-83
2022/08/08 04:48:24;;;;;;;3.57;2.03;;;17.60;87.60;;;;;;4990201;28;20689;-84
2022/08/08 04:50:49;;;;;;;3.67;2.30;;;17.60;88.00;;;;;;4960349;28;20984;-84
2022/08/08 04:53:20;;;;;;;8.00;2.47;;;17.60;88.60;;;;;;4972809;28;20513;-84
2022/08/08 04:55:46;;;;;;;5.00;2.30;;;17.60;89.00;;;;;;4968006;28;20583;-84
2022/08/08 04:58:14;;;;;;;3.67;2.30;;;17.60;89.50;;;;;;4945273;28;20952;-84
2022/08/08 05:00:40;;;;;;;2.40;2.00;;;17.60;90.00;;;;;;4945834;28;20587;-85
2022/08/08 05:03:07;;;;;;;4.00;2.40;;;17.60;90.20;;;;;;4959614;28;20635;-85
2022/08/08 05:05:34;;;;;;;3.37;2.63;;;17.60;90.40;;;;;;4974579;28;20663;-84
2022/08/08 05:08:00;;;;;;;4.43;2.30;;;17.60;90.60;;;;;;4958202;28;20642;-86
2022/08/08 05:10:29;;;;;;;2.80;2.33;;;17.60;90.70;;;;;;4959142;28;20269;-84
2022/08/08 05:12:57;;;;;;;3.17;2.10;;;17.60;90.80;;;;;;4962874;28;20602;-84
2022/08/08 05:15:23;;;;;;;2.70;2.40;;;17.70;91.10;;;;;;4964693;28;20602;-84
2022/08/08 05:17:50;;;;;;;4.37;2.20;;;17.70;91.30;;;;;;4963912;28;20641;-84
2022/08/08 05:20:16;;;;;;;3.07;2.03;;;17.70;91.40;;;;;;4952923;28;20949;-84
2022/08/08 05:22:42;;;;;;;5.60;2.50;;;17.70;91.70;;;;;;4965296;28;20572;-84
2022/08/08 05:25:09;;;;;;;5.07;2.70;;;17.80;91.80;;;;;;4982070;28;20164;-84
2022/08/08 05:27:35;;;;;;;3.77;2.37;;;17.90;91.90;;;;;;4964415;28;20630;-84
2022/08/08 05:30:02;;;;;;;3.50;2.33;;;17.90;92.10;;;;;;4980983;28;20567;-84
2022/08/08 05:32:36;;;;;;;4.47;2.43;;;17.90;92.30;;;;;;4946744;28;20195;-85
2022/08/08 05:35:03;;;;;;;5.00;2.40;;;17.90;92.30;;;;;;4945185;28;20602;-84
2022/08/08 05:37:33;;;;;;;3.33;2.57;;;18.00;92.50;;;;;;4960665;28;20662;-84
2022/08/08 05:40:04;;;;;;;3.27;2.17;;;18.00;92.60;;;;;;4960961;28;20575;-84
2022/08/08 05:42:41;;;;;;;5.10;3.20;;;18.10;92.80;;;;;;4964759;28;20637;-84
2022/08/08 05:45:11;;;;;;;3.40;2.27;;;18.10;93.10;;;;;;4967168;28;20598;-84
2022/08/08 05:47:39;;;;;;;3.03;2.73;;;18.20;93.00;;;;;;4949023;28;20638;-84
2022/08/08 05:50:05;;;;;;;3.77;2.00;;;18.20;93.10;;;;;;4964601;28;20595;-82
2022/08/08 05:52:35;;;;;;;3.47;2.70;;;18.30;93.30;;;;;;4963385;28;20571;-82
2022/08/08 05:55:04;;;;;;;3.20;2.40;;;18.40;93.50;;;;;;4963978;28;20581;-82
2022/08/08 05:57:33;;;;;;;4.60;3.10;;;18.50;93.60;;;;;;4958818;28;21006;-81
2022/08/08 06:00:05;;;;;;;4.40;2.87;;;18.80;94.10;;;;;;4958076;28;20567;-83
2022/08/08 06:05:31;;;;;;;3.33;3.03;;;19.60;94.50;;;;;;4971717;28;20630;-77
2022/08/08 06:07:58;;;;;;;3.03;2.63;;;20.20;94.40;;;;;;4976626;28;20996;-77
2022/08/08 06:10:29;;;;;;;6.57;3.43;;;20.60;93.90;;;;;;4955253;28;20575;-78
2022/08/08 06:12:55;;;;;;;2.53;2.33;;;20.80;93.30;;;;;;4971668;28;20661;-77
2022/08/08 06:15:21;;;;;;;4.40;2.30;;;21.10;93.00;;;;;;4960608;28;20652;-77
2022/08/08 06:17:49;;;;;;;3.50;2.57;;;21.40;92.80;;;;;;4980517;28;20594;-77
2022/08/08 06:20:15;;;;;;;3.10;2.37;;;22.00;93.20;;;;;;4953824;28;21178;-77
2022/08/08 06:22:41;;;;;;;2.50;2.17;;;22.80;93.70;;;;;;4971816;28;20678;-78
2022/08/08 06:25:13;;;;;;;2.63;1.93;;;23.70;93.70;;;;;;4962550;28;20941;-77
2022/08/08 06:27:45;;;;;;;2.80;2.00;;;24.90;93.60;;;;;;4979490;28;20646;-77
2022/08/08 06:30:13;;;;;;;3.70;2.40;;;25.70;92.10;;;;;;4946585;28;20601;-77
2022/08/08 06:32:50;;;;;;;4.30;2.33;;;26.70;91.30;;;;;;4957042;28;20672;-78
2022/08/08 06:35:20;;;;;;;3.80;2.23;;;27.40;88.90;;;;;;4939267;28;20587;-77
2022/08/08 06:37:53;;;;;;;2.90;2.13;;;28.30;87.70;;;;;;4955415;28;20651;-76
2022/08/08 06:40:24;;;;;;;4.40;2.13;;;29.20;85.00;;;;;;4955472;28;20592;-76
2022/08/08 06:43:07;;;;;;;8.00;2.07;;;30.00;82.30;;;;;;4956463;28;20617;-77
2022/08/08 06:45:45;;;;;;;4.15;2.40;;;30.50;77.80;;;;;;4954455;29;21081;-78
2022/08/08 06:48:11;;;;;;;3.90;2.43;;;31.70;62.00;;;;;;4954086;28;20803;-76
2022/08/08 06:50:40;;;;;;;2.57;1.73;;;32.40;55.50;;;;;;4924253;29;20582;-75
2022/08/08 06:53:11;;;;;;;5.17;2.23;;;32.90;59.60;;;;;;4958160;28;20989;-76
2022/08/08 06:55:38;;;;;;;3.70;2.00;;;33.50;59.10;;;;;;4981733;28;20582;-75
2022/08/08 06:58:04;;;;;;;3.47;1.97;;;34.00;57.80;;;;;;4973118;28;20596;-77
2022/08/08 07:00:36;;;;;;;4.10;2.20;;;34.40;56.80;;;;;;4973591;28;20718;-77
2022/08/08 07:03:07;;;;;;;2.60;1.83;;;34.90;47.60;;;;;;4974113;28;20602;-77
2022/08/08 07:05:37;;;;;;;2.70;1.53;;;35.30;50.30;;;;;;4990127;28;20590;-77
2022/08/08 07:08:19;;;;;;;4.37;2.00;;;35.80;49.80;;;;;;4990476;28;20700;-77
2022/08/08 07:10:53;;;;;;;3.50;1.93;;;36.20;49.10;;;;;;4966594;28;20694;-77
2022/08/08 07:13:19;;;;;;;2.70;1.53;;;36.70;48.10;;;;;;4961805;28;20626;-77
2022/08/08 07:16:02;;;;;;;2.80;1.70;;;37.10;47.80;;;;;;4967278;28;20579;-77
2022/08/08 07:18:54;;;;;;;2.37;1.20;;;37.30;46.20;;;;;;4988953;28;20574;-77
2022/08/08 07:21:26;;;;;;;2.77;1.47;;;37.70;45.80;;;;;;4981942;28;20583;-77
2022/08/08 07:24:07;;;;;;;2.30;1.50;;;38.20;45.80;;;;;;4990262;28;21032;-77
2022/08/08 07:26:43;;;;;;;2.93;1.33;;;38.50;44.10;;;;;;4989695;28;20571;-77
2022/08/08 07:29:09;;;;;;;2.43;1.67;;;38.80;43.70;;;;;;4990269;28;20928;-77
2022/08/08 07:31:35;;;;;;;3.10;1.40;;;38.90;42.80;;;;;;4981979;28;20645;-77
2022/08/08 07:34:06;;;;;;;2.90;1.60;;;39.10;42.30;;;;;;4985352;28;20649;-77
2022/08/08 07:36:32;;;;;;;2.93;1.50;;;39.30;41.30;;;;;;4961514;28;20902;-77
2022/08/08 07:39:00;;;;;;;3.93;1.50;;;39.40;41.10;;;;;;4981958;28;20586;-77
2022/08/08 07:41:28;;;;;;;2.40;1.60;;;39.50;40.50;;;;;;4989336;28;20964;-77
2022/08/08 07:43:59;;;;;;;3.20;1.67;;;39.60;39.80;;;;;;4973456;28;20626;-77
2022/08/08 07:46:25;;;;;;;2.90;2.10;;;40.00;39.50;;;;;;4990819;28;21060;-77
2022/08/08 07:48:55;;;;;;;2.80;1.30;;;40.20;39.00;;;;;;4989805;28;20582;-77
2022/08/08 07:51:22;;;;;;;2.80;1.50;;;40.50;38.40;;;;;;4992450;28;20933;-79
2022/08/08 07:53:48;;;;;;;3.33;1.80;;;40.70;37.90;;;;;;5001222;28;20607;-79
2022/08/08 07:56:16;;;;;;;2.93;1.77;;;41.00;37.70;;;;;;4984565;28;20974;-79
2022/08/08 07:58:45;;;;;;;2.87;1.80;;;41.30;37.00;;;;;;4993792;28;20266;-78
2022/08/08 08:01:19;;;;;;;1.90;1.30;;;41.50;36.20;;;;;;4989787;28;20603;-78
2022/08/08 08:04:12;;;;;;;4.60;1.27;;;41.70;35.90;;;;;;4989447;28;20621;-78
2022/08/08 08:06:40;;;;;;;2.20;1.40;;;41.90;35.50;;;;;;4989231;28;20609;-78
2022/08/08 08:09:22;;;;;;;2.70;1.57;;;42.20;35.40;;;;;;4977180;28;21053;-77
2022/08/08 08:11:49;;;;;;;2.20;1.37;;;42.30;34.50;;;;;;4990510;28;21009;-75
2022/08/08 08:14:43;;;;;;;3.10;1.20;;;42.30;34.60;;;;;;4996780;28;20966;-77
2022/08/08 08:17:18;;;;;;;4.80;1.30;;;42.30;34.60;;;;;;4971924;28;20618;-77
2022/08/08 08:19:48;;;;;;;3.07;1.60;;;42.30;34.00;;;;;;4978667;28;20659;-77
2022/08/08 08:22:17;;;;;;;2.53;1.60;;;42.30;33.30;;;;;;4982346;28;20587;-77
2022/08/08 08:24:46;;;;;;;3.03;2.10;;;42.20;33.40;;;;;;4978378;28;20971;-77
2022/08/08 08:27:13;;;;;;;1.87;1.30;;;42.10;32.90;;;;;;4974385;28;20638;-78
2022/08/08 08:29:42;;;;;;;1.70;1.17;;;42.00;32.60;;;;;;4966292;28;20606;-77
2022/08/08 08:32:08;;;;;;;2.03;1.50;;;42.00;32.60;;;;;;4976611;28;20686;-78
2022/08/08 08:34:38;;;;;;;3.23;1.17;;;42.00;32.40;;;;;;4972213;28;21373;-77
2022/08/08 08:37:05;;;;;;;2.00;1.20;;;42.00;32.10;;;;;;4989002;28;20680;-78
2022/08/08 08:39:31;;;;;;;2.73;1.20;;;41.90;32.10;;;;;;4972573;28;20729;-78
2022/08/08 08:41:59;;;;;;;1.50;1.10;;;41.80;32.00;;;;;;4988764;28;20591;-77
2022/08/08 08:44:27;;;;;;;2.60;1.43;;;41.80;32.40;;;;;;4988760;28;20626;-80
2022/08/08 08:46:54;;;;;;;1.77;1.00;;;41.90;32.00;;;;;;4972139;28;21213;-81
2022/08/08 08:49:20;;;;;;;2.13;1.27;;;41.90;31.70;;;;;;4972331;28;20590;-80
2022/08/08 08:51:49;;;;;;;2.63;1.40;;;42.00;31.90;;;;;;4988574;28;20679;-81
2022/08/08 08:54:18;;;;;;;1.77;1.30;;;42.20;31.30;;;;;;4987508;28;20701;-81
2022/08/08 08:56:46;;;;;;;1.77;1.10;;;42.30;30.90;;;;;;4988396;28;20587;-81
2022/08/08 08:59:16;;;;;;;2.20;1.37;;;42.30;31.00;;;;;;4963167;28;20605;-81
2022/08/08 09:01:54;;;;;;;2.57;1.00;;;42.50;31.00;;;;;;4973620;28;20919;-81
2022/08/08 09:04:33;;;;;;;2.10;1.30;;;42.60;30.60;;;;;;4988054;28;20602;-81
2022/08/08 09:07:02;;;;;;;1.50;0.93;;;42.80;30.20;;;;;;4988182;28;20637;-81
2022/08/08 09:09:34;;;;;;;3.20;1.00;;;42.90;30.30;;;;;;4988124;28;20687;-81
2022/08/08 09:12:09;;;;;;;1.67;0.90;;;43.10;29.90;;;;;;4988195;28;20597;-81
2022/08/08 09:14:40;;;;;;;2.47;1.13;;;43.30;29.20;;;;;;4987677;28;20645;-81
2022/08/08 09:17:08;;;;;;;1.47;0.80;;;43.30;29.10;;;;;;4973200;28;21130;-81
2022/08/08 09:19:34;;;;;;;6.07;1.23;;;43.30;29.20;;;;;;4987927;28;20637;-81
2022/08/08 09:22:02;;;;;;;2.43;1.00;;;43.40;28.70;;;;;;4988162;28;20597;-81
2022/08/08 09:24:29;;;;;;;3.33;1.57;;;43.50;28.40;;;;;;4987672;28;20607;-81
2022/08/08 09:27:02;;;;;;;2.70;1.13;;;43.50;28.20;;;;;;4987890;28;20622;-81
2022/08/08 09:29:31;;;;;;;1.40;0.97;;;43.50;28.20;;;;;;4988036;28;20633;-81
2022/08/08 09:32:04;;;;;;;2.77;1.00;;;43.50;28.20;;;;;;4972107;28;21146;-79
2022/08/08 09:34:38;;;;;;;2.80;0.80;;;43.50;28.20;;;;;;4987898;28;20617;-81
2022/08/08 09:37:10;;;;;;;2.00;0.80;;;43.30;26.80;;;;;;4992884;28;20586;-81
2022/08/08 09:40:06;;;;;;;1.70;0.80;;;43.20;27.50;;;;;;4987949;28;21134;-81
2022/08/08 09:42:37;;;;;;;2.43;0.83;;;43.20;27.60;;;;;;4987937;28;20229;-81
2022/08/08 09:45:08;;;;;;;1.60;0.80;;;43.30;27.40;;;;;;4972547;28;20693;-81
2022/08/08 09:47:39;;;;;;;2.13;1.00;;;43.20;27.20;;;;;;4972752;28;20631;-81
2022/08/08 09:50:12;;;;;;;1.50;0.90;;;42.90;26.10;;;;;;4987750;28;20579;-80
2022/08/08 09:52:41;;;;;;;1.43;0.93;;;42.20;26.00;;;;;;4973029;28;20579;-81
2022/08/08 09:55:07;;;;;;;1.77;0.93;;;41.80;26.60;;;;;;4972722;28;20582;-80
2022/08/08 09:57:36;;;;;;;1.70;1.20;;;41.70;27.10;;;;;;4972803;28;20926;-80
2022/08/08 10:00:09;;;;;;;1.60;0.90;;;41.80;27.40;;;;;;4972839;28;20579;-81
2022/08/08 10:02:43;;;;;;;1.90;1.20;;;42.00;27.50;;;;;;4987881;28;20626;-81
2022/08/08 10:05:13;;;;;;;2.00;0.90;;;42.10;27.50;;;;;;4974679;28;20730;-81
2022/08/08 10:07:59;;;;;;;3.20;1.10;;;42.20;27.40;;;;;;4975570;28;20642;-80
2022/08/08 10:10:32;;;;;;;4.00;0.90;;;42.30;27.20;;;;;;4976798;28;20583;-81
2022/08/08 10:13:20;;;;;;;2.43;0.90;;;42.40;27.40;;;;;;4982730;28;20602;-79
2022/08/08 10:15:49;;;;;;;2.93;1.10;;;42.50;27.00;;;;;;4978157;28;20606;-79
2022/08/08 10:18:30;;;;;;;1.53;0.90;;;42.70;27.10;;;;;;4978284;28;20937;-77
2022/08/08 10:21:10;;;;;;;1.83;1.10;;;42.60;27.10;;;;;;4993575;28;20575;-79
2022/08/08 10:23:41;;;;;;;2.30;1.10;;;42.60;26.60;;;;;;4978209;28;20607;-78
2022/08/08 10:26:27;;;;;;;1.60;0.97;;;42.50;26.90;;;;;;4977991;28;20614;-79
2022/08/08 10:29:03;;;;;;;1.53;1.00;;;42.50;27.10;;;;;;4991879;28;20653;-79
2022/08/08 10:34:18;;;;;;;1.70;1.07;;;42.50;26.70;;;;;;4976940;28;20605;-79
2022/08/08 10:36:44;;;;;;;1.30;0.60;;;42.50;26.30;;;;;;4991657;28;20594;-79
2022/08/08 10:39:17;;;;;;;1.50;0.80;;;42.30;26.30;;;;;;4991269;28;20686;-79
2022/08/08 10:41:53;;;;;;;1.37;0.80;;;42.30;26.20;;;;;;4976156;28;20577;-79
2022/08/08 10:44:41;;;;;;;3.07;0.93;;;42.30;26.30;;;;;;4975992;28;20622;-79
2022/08/08 10:47:19;;;;;;;1.30;0.80;;;42.20;26.40;;;;;;4991136;28;20729;-77
2022/08/08 10:49:53;;;;;;;1.90;1.00;;;41.80;25.80;;;;;;4981451;28;21204;-77
2022/08/08 10:52:34;;;;;;;2.03;1.00;;;41.70;26.10;;;;;;4976538;28;20629;-79
2022/08/08 10:55:12;;;;;;;2.33;1.00;;;41.70;26.20;;;;;;4976385;28;20570;-79
2022/08/08 10:57:41;;;;;;;1.50;0.90;;;41.70;26.20;;;;;;4976784;28;20717;-79
2022/08/08 11:00:11;;;;;;;1.80;1.00;;;41.70;26.00;;;;;;4976575;28;20610;-79
2022/08/08 11:02:38;;;;;;;1.60;0.90;;;41.60;26.00;;;;;;4976654;28;20590;-79
2022/08/08 11:05:08;;;;;;;2.60;0.93;;;41.60;26.50;;;;;;4980186;28;20962;-78
2022/08/08 11:07:36;;;;;;;2.00;1.00;;;41.60;26.30;;;;;;4997401;28;21065;-78
2022/08/08 11:10:11;;;;;;;2.10;0.90;;;41.30;25.80;;;;;;4984233;28;20168;-78
2022/08/08 11:12:50;;;;;;;1.50;0.80;;;41.40;25.70;;;;;;4984117;28;20574;-78
2022/08/08 11:15:24;;;;;;;1.60;0.90;;;41.50;26.30;;;;;;4983181;28;20582;-78
2022/08/08 11:17:51;;;;;;;1.77;0.97;;;41.50;26.10;;;;;;4983261;28;20629;-78
2022/08/08 11:20:20;;;;;;;1.40;0.80;;;41.40;26.10;;;;;;4980931;28;20567;-78
2022/08/08 11:22:51;;;;;;;2.27;0.80;;;41.30;25.80;;;;;;4979742;28;20578;-78
2022/08/08 11:25:18;;;;;;;1.40;0.70;;;41.20;25.90;;;;;;4978422;28;20575;-78
2022/08/08 11:27:47;;;;;;;1.80;1.03;;;41.20;26.00;;;;;;4986129;28;20623;-78
2022/08/08 11:30:13;;;;;;;2.00;1.00;;;41.00;25.90;;;;;;4997101;28;20606;-78
2022/08/08 11:32:42;;;;;;;2.37;0.80;;;40.80;26.20;;;;;;4982042;28;20591;-78
2022/08/08 11:35:14;;;;;;;1.70;0.90;;;40.70;26.10;;;;;;4982469;28;20571;-78
2022/08/08 11:37:41;;;;;;;1.80;0.90;;;40.60;26.60;;;;;;4983871;28;20578;-78
2022/08/08 11:40:12;;;;;;;2.30;0.90;;;40.50;26.10;;;;;;4986148;28;20598;-79
2022/08/08 11:42:39;;;;;;;1.80;1.03;;;40.20;26.10;;;;;;4982267;28;20579;-79
2022/08/08 11:45:06;;;;;;;1.80;1.10;;;40.00;26.10;;;;;;4995586;28;20719;-77
2022/08/08 11:47:34;;;;;;;2.00;1.20;;;39.80;26.40;;;;;;4978751;28;20634;-77
2022/08/08 11:50:04;;;;;;;2.77;1.10;;;39.50;26.30;;;;;;4979735;28;20638;-77
2022/08/08 11:52:31;;;;;;;1.80;1.00;;;39.40;26.60;;;;;;4979644;28;20575;-77
2022/08/08 11:54:57;;;;;;;2.30;1.00;;;39.20;27.00;;;;;;4982686;28;20610;-77
2022/08/08 11:57:28;;;;;;;3.00;1.17;;;39.20;27.00;;;;;;5000254;28;21158;-77
2022/08/08 12:00:04;;;;;;;1.50;1.00;;;39.00;26.90;;;;;;4995282;28;20175;-78
2022/08/08 12:02:55;;;;;;;2.30;1.10;;;38.90;27.00;;;;;;4983235;28;20821;-78
2022/08/08 12:05:39;;;;;;;1.50;0.93;;;38.60;27.40;;;;;;4990462;28;20940;-80
2022/08/08 12:08:05;;;;;;;2.60;1.20;;;38.50;27.20;;;;;;4992780;28;20582;-79
2022/08/08 12:10:31;;;;;;;2.10;1.00;;;38.50;27.40;;;;;;4977309;28;21024;-79
2022/08/08 12:13:06;;;;;;;2.87;1.20;;;38.40;27.40;;;;;;4976114;28;20614;-79
2022/08/08 12:15:34;;;;;;;1.87;1.00;;;38.30;27.40;;;;;;4991507;28;20593;-80
2022/08/08 12:18:15;;;;;;;2.23;1.30;;;38.20;27.40;;;;;;4977821;28;20719;-79
2022/08/08 12:20:41;;;;;;;5.00;1.20;;;37.90;27.40;;;;;;4977362;28;20621;-79
2022/08/08 12:23:08;;;;;;;2.10;1.30;;;37.80;27.50;;;;;;4977144;28;21198;-79
2022/08/08 12:25:34;;;;;;;1.80;1.10;;;37.50;27.50;;;;;;4975003;28;20183;-79
2022/08/08 12:28:09;;;;;;;2.93;1.00;;;37.20;27.50;;;;;;4974493;28;20582;-79
2022/08/08 12:30:35;;;;;;;2.73;1.23;;;36.90;28.00;;;;;;4997697;28;20516;-80
2022/08/08 12:33:01;;;;;;;3.67;1.50;;;36.60;27.90;;;;;;4975089;28;20617;-79
2022/08/08 12:35:38;;;;;;;3.50;1.20;;;36.40;28.10;;;;;;4977493;28;20184;-79
2022/08/08 12:38:06;;;;;;;2.50;1.20;;;36.10;28.20;;;;;;4992771;28;21401;-79
2022/08/08 12:40:46;;;;;;;2.40;1.33;;;35.70;28.90;;;;;;4986067;28;20184;-79
2022/08/08 12:43:14;;;;;;;1.73;1.03;;;35.70;28.60;;;;;;4976558;28;20618;-79
2022/08/08 12:45:44;;;;;;;3.07;1.30;;;35.60;28.60;;;;;;4976331;28;20590;-79
2022/08/08 12:48:18;;;;;;;1.70;1.00;;;35.40;28.50;;;;;;4978076;28;20615;-78
2022/08/08 12:50:47;;;;;;;2.87;1.40;;;35.20;28.60;;;;;;4980181;28;20968;-80
2022/08/08 12:53:22;;;;;;;1.80;0.97;;;35.00;28.50;;;;;;4961206;28;20696;-80
2022/08/08 12:55:57;;;;;;;2.57;1.10;;;34.60;28.60;;;;;;4977210;28;21117;-79
2022/08/08 12:58:28;;;;;;;3.30;1.30;;;34.20;28.60;;;;;;4991007;28;20995;-79
2022/08/08 13:01:06;;;;;;;2.70;1.10;;;33.90;28.70;;;;;;4973648;28;20570;-79
2022/08/08 13:03:33;;;;;;;3.47;1.37;;;33.60;28.70;;;;;;4988632;28;20612;-79
2022/08/08 13:06:03;;;;;;;3.50;1.07;;;33.40;29.00;;;;;;4989042;28;21126;-79
2022/08/08 13:08:39;;;;;;;2.20;1.10;;;33.00;29.20;;;;;;4990179;28;20605;-79
2022/08/08 13:11:18;;;;;;;2.00;1.30;;;32.80;29.60;;;;;;4989753;28;20586;-79
2022/08/08 13:13:50;;;;;;;2.13;1.40;;;32.50;29.70;;;;;;4973810;28;20606;-80
2022/08/08 13:16:23;;;;;;;1.83;1.03;;;32.20;29.80;;;;;;4993705;28;20578;-79
2022/08/08 13:18:49;;;;;;;2.97;1.20;;;32.00;30.00;;;;;;4973328;28;20626;-80
2022/08/08 13:21:15;;;;;;;2.90;1.40;;;31.70;30.00;;;;;;4973535;28;20935;-79
2022/08/08 13:23:41;;;;;;;2.43;1.20;;;31.60;30.10;;;;;;4973155;28;20187;-80
2022/08/08 13:26:08;;;;;;;1.60;0.93;;;31.40;30.40;;;;;;4973275;28;20591;-81
2022/08/08 13:28:34;;;;;;;2.50;1.30;;;31.20;30.40;;;;;;4992818;28;20722;-78
2022/08/08 13:31:04;;;;;;;7.93;1.40;;;31.10;31.60;;;;;;4987551;28;20222;-78
2022/08/08 13:33:31;;;;;;;2.63;1.23;;;31.00;31.30;;;;;;4986978;28;20675;-77
2022/08/08 13:35:58;;;;;;;5.13;1.20;;;31.00;31.20;;;;;;4988029;28;20579;-78
2022/08/08 13:38:24;;;;;;;4.30;1.43;;;31.00;31.50;;;;;;4989024;28;20619;-78